Time;durP1;ratioP1;P1;durP2;ratioP2;P2;SDS_P1;SDS_P2;PMS_P1;PMS_P2;Temp;Humidity;BMP_temperature;BMP_pressure;BME280_temperature;BME280_humidity;BME280_pressure;Samples;Min_cycle;Max_cycle;Signal;HPM_P1;HPM_P2
2021/01/30 00:02:01;;;;;;;11.37;7.43;;;-0.30;99.90;;;;;;5073273;28;20201;-86
2021/01/30 00:04:36;;;;;;;15.00;9.97;;;-0.30;99.90;;;;;;5072417;28;20198;-86
2021/01/30 00:07:05;;;;;;;13.50;9.63;;;-0.40;99.90;;;;;;5073491;28;20250;-87
2021/01/30 00:09:37;;;;;;;10.80;8.13;;;-0.30;99.90;;;;;;5072318;28;20172;-86
2021/01/30 00:12:09;;;;;;;9.70;7.67;;;-0.30;99.90;;;;;;5073682;28;20228;-87
2021/01/30 00:14:39;;;;;;;12.57;9.20;;;-0.30;99.90;;;;;;5072147;28;20281;-86
2021/01/30 00:17:11;;;;;;;13.20;8.87;;;-0.30;99.90;;;;;;5073546;28;20182;-86
2021/01/30 00:19:46;;;;;;;11.80;8.77;;;-0.30;99.90;;;;;;5072638;28;20190;-87
2021/01/30 00:22:17;;;;;;;13.47;10.43;;;-0.20;99.90;;;;;;5073553;28;20591;-87
2021/01/30 00:24:51;;;;;;;12.47;9.60;;;-0.30;99.90;;;;;;5075101;28;20198;-87
2021/01/30 00:27:25;;;;;;;13.00;9.67;;;-0.20;99.90;;;;;;5076190;28;20179;-87
2021/01/30 00:30:01;;;;;;;10.67;8.77;;;-0.30;99.90;;;;;;5077430;28;20169;-87
2021/01/30 00:32:34;;;;;;;13.23;9.57;;;-0.20;99.90;;;;;;5076265;28;20187;-87
2021/01/30 00:35:07;;;;;;;13.47;9.60;;;-0.20;99.90;;;;;;5076142;28;20199;-87
2021/01/30 00:37:39;;;;;;;11.80;9.27;;;-0.20;99.90;;;;;;5077310;28;20175;-87
2021/01/30 00:40:11;;;;;;;10.90;9.40;;;-0.20;99.90;;;;;;5076141;28;20183;-87
2021/01/30 00:42:44;;;;;;;13.57;10.03;;;-0.20;99.90;;;;;;5077045;28;20244;-87
2021/01/30 00:45:16;;;;;;;12.57;10.57;;;-0.20;99.90;;;;;;5077212;28;20207;-87
2021/01/30 00:47:50;;;;;;;13.27;10.00;;;-0.20;99.90;;;;;;5075884;28;20182;-87
2021/01/30 00:50:25;;;;;;;14.00;11.03;;;-0.20;99.90;;;;;;5077267;28;20174;-87
2021/01/30 00:52:54;;;;;;;12.00;9.60;;;-0.10;99.90;;;;;;5076911;28;20179;-87
2021/01/30 00:55:26;;;;;;;12.83;10.13;;;-0.10;99.90;;;;;;5077144;28;20627;-87
2021/01/30 00:58:01;;;;;;;12.70;10.30;;;0.00;99.90;;;;;;5075711;28;20641;-86
2021/01/30 01:00:31;;;;;;;13.77;10.83;;;-0.10;99.90;;;;;;5076001;28;20174;-87
2021/01/30 01:02:57;;;;;;;16.03;11.53;;;-0.10;99.90;;;;;;5075534;28;20247;-87
2021/01/30 01:05:28;;;;;;;16.77;11.57;;;0.00;99.90;;;;;;5076665;28;20274;-87
2021/01/30 01:07:54;;;;;;;13.90;11.37;;;0.00;99.90;;;;;;5075431;28;20647;-87
2021/01/30 01:10:26;;;;;;;14.20;11.20;;;0.00;99.90;;;;;;5075535;28;20266;-87
2021/01/30 01:13:00;;;;;;;15.20;11.67;;;0.00;99.90;;;;;;5075341;28;20208;-87
2021/01/30 01:15:31;;;;;;;16.23;12.03;;;0.00;99.90;;;;;;5075170;28;20195;-87
2021/01/30 01:18:07;;;;;;;14.67;11.67;;;0.10;99.90;;;;;;5075223;28;20256;-87
2021/01/30 01:20:40;;;;;;;15.40;12.17;;;0.10;99.90;;;;;;5076367;28;20171;-87
2021/01/30 01:23:07;;;;;;;15.53;11.97;;;0.10;99.90;;;;;;5075101;28;20212;-87
2021/01/30 01:25:33;;;;;;;16.33;12.80;;;0.10;99.90;;;;;;5076359;28;20174;-87
2021/01/30 01:28:07;;;;;;;16.83;12.70;;;0.10;99.90;;;;;;5076261;28;20167;-87
2021/01/30 01:30:41;;;;;;;15.77;12.87;;;0.10;99.90;;;;;;5074917;28;20182;-87
2021/01/30 01:33:13;;;;;;;15.10;12.43;;;0.00;99.90;;;;;;5075334;28;20558;-87
2021/01/30 01:35:47;;;;;;;17.07;12.60;;;0.10;99.90;;;;;;5075315;28;20209;-87
2021/01/30 01:38:20;;;;;;;16.77;12.97;;;0.10;99.90;;;;;;5076073;28;20245;-87
2021/01/30 01:40:51;;;;;;;18.30;13.30;;;0.00;99.90;;;;;;5074885;28;20675;-87
2021/01/30 01:43:25;;;;;;;18.47;12.97;;;0.00;99.90;;;;;;5074740;28;20548;-87
2021/01/30 01:46:25;;;;;;;17.23;13.47;;;0.10;99.90;;;;;;5074773;28;20175;-87
2021/01/30 01:48:59;;;;;;;18.13;14.40;;;0.10;99.90;;;;;;5076162;28;20168;-87
2021/01/30 01:51:41;;;;;;;19.07;15.03;;;0.10;99.90;;;;;;5074762;28;20220;-87
2021/01/30 01:54:25;;;;;;;18.57;14.20;;;0.20;99.90;;;;;;5074736;28;20256;-87
2021/01/30 01:57:05;;;;;;;19.50;15.10;;;0.20;99.90;;;;;;5074458;28;20647;-87
2021/01/30 01:59:45;;;;;;;22.50;16.07;;;0.10;99.90;;;;;;5075716;28;20167;-87
2021/01/30 02:02:18;;;;;;;19.77;15.40;;;0.20;99.90;;;;;;5075792;28;20219;-87
2021/01/30 02:05:01;;;;;;;20.13;15.37;;;0.10;99.90;;;;;;5074665;28;20252;-87
2021/01/30 02:07:37;;;;;;;19.73;14.50;;;0.10;99.90;;;;;;5074293;28;20187;-87
2021/01/30 02:10:12;;;;;;;23.00;14.87;;;0.10;99.90;;;;;;5074862;28;20175;-87
2021/01/30 02:12:42;;;;;;;18.87;13.60;;;0.10;99.90;;;;;;5074283;28;20642;-86
2021/01/30 02:15:16;;;;;;;20.00;14.90;;;0.10;99.90;;;;;;5074097;28;20232;-87
2021/01/30 02:18:09;;;;;;;23.17;15.63;;;0.10;99.90;;;;;;5074227;28;20666;-87
2021/01/30 02:21:00;;;;;;;21.00;13.60;;;0.00;99.90;;;;;;5073980;28;20647;-86
2021/01/30 02:24:01;;;;;;;21.20;15.50;;;0.00;99.90;;;;;;5073984;28;20675;-86
2021/01/30 02:27:15;;;;;;;19.03;14.63;;;0.00;99.90;;;;;;5075226;28;20723;-87
2021/01/30 02:30:06;;;;;;;21.33;16.27;;;0.10;99.90;;;;;;5064175;28;20309;-87
2021/01/30 02:33:06;;;;;;;22.70;16.47;;;0.00;99.90;;;;;;5073852;28;20177;-86
2021/01/30 02:35:41;;;;;;;25.13;17.53;;;0.00;99.90;;;;;;5074368;28;20564;-87
2021/01/30 02:38:24;;;;;;;24.77;16.90;;;0.00;99.90;;;;;;5073768;28;20274;-87
2021/01/30 02:41:01;;;;;;;27.63;16.93;;;0.00;99.90;;;;;;5074823;28;20278;-87
2021/01/30 02:43:41;;;;;;;27.17;18.73;;;0.00;99.90;;;;;;5074659;28;20669;-86
2021/01/30 02:46:13;;;;;;;26.10;18.50;;;0.00;99.90;;;;;;5075212;28;20162;-86
2021/01/30 02:48:51;;;;;;;25.67;19.10;;;0.00;99.90;;;;;;5072855;28;20221;-87
2021/01/30 02:51:31;;;;;;;27.13;17.63;;;-0.10;99.90;;;;;;5074664;28;20186;-87
2021/01/30 02:54:03;;;;;;;28.63;19.50;;;-0.10;99.90;;;;;;5074529;28;20199;-87
2021/01/30 02:56:35;;;;;;;29.50;19.37;;;-0.10;99.90;;;;;;5074533;28;20206;-87
2021/01/30 02:59:21;;;;;;;28.10;19.77;;;-0.10;99.90;;;;;;5074544;28;20176;-87
2021/01/30 03:01:56;;;;;;;28.70;19.20;;;-0.10;99.90;;;;;;5073851;28;20676;-87
2021/01/30 03:04:29;;;;;;;29.30;18.83;;;-0.10;99.90;;;;;;5074376;28;20662;-87
2021/01/30 03:07:11;;;;;;;26.77;19.17;;;-0.20;99.90;;;;;;5073178;28;20557;-87
2021/01/30 03:10:08;;;;;;;28.57;18.43;;;-0.20;99.90;;;;;;5074345;28;20220;-86
2021/01/30 03:12:51;;;;;;;30.93;19.57;;;-0.30;99.90;;;;;;5073305;28;20184;-87
2021/01/30 03:15:35;;;;;;;29.67;19.07;;;-0.30;99.90;;;;;;5072983;28;20755;-86
2021/01/30 03:18:07;;;;;;;25.67;18.50;;;-0.40;99.90;;;;;;5072936;28;20178;-86
2021/01/30 03:20:41;;;;;;;29.10;18.40;;;-0.50;99.90;;;;;;5074300;28;20273;-86
2021/01/30 03:23:17;;;;;;;27.47;18.20;;;-0.60;99.90;;;;;;5072737;28;20597;-86
2021/01/30 03:25:55;;;;;;;24.60;16.67;;;-0.60;99.90;;;;;;5072842;28;20175;-86
2021/01/30 03:28:28;;;;;;;25.97;18.73;;;-0.70;99.90;;;;;;5074251;28;20169;-87
2021/01/30 03:31:06;;;;;;;23.93;17.47;;;-0.70;99.90;;;;;;5074123;28;20538;-87
2021/01/30 03:33:40;;;;;;;25.80;18.13;;;-0.70;99.90;;;;;;5073273;28;20581;-87
2021/01/30 03:36:16;;;;;;;24.47;18.07;;;-0.60;99.90;;;;;;5073144;28;20273;-86
2021/01/30 03:38:50;;;;;;;21.87;16.80;;;-0.60;99.90;;;;;;5072897;28;20179;-87
2021/01/30 03:41:24;;;;;;;25.30;17.97;;;-0.60;99.90;;;;;;5073675;28;20589;-87
2021/01/30 03:43:52;;;;;;;23.33;17.20;;;-0.60;99.90;;;;;;5072334;28;20582;-86
2021/01/30 03:46:26;;;;;;;24.80;18.13;;;-0.70;99.90;;;;;;5072524;28;20186;-87
2021/01/30 03:48:52;;;;;;;22.57;17.13;;;-0.60;99.90;;;;;;5073283;28;20719;-87
2021/01/30 03:51:25;;;;;;;25.43;17.37;;;-0.60;99.90;;;;;;5072358;28;20190;-87
2021/01/30 03:53:55;;;;;;;25.83;17.70;;;-0.60;99.90;;;;;;5072285;28;20206;-87
2021/01/30 03:56:31;;;;;;;24.30;18.20;;;-0.60;99.90;;;;;;5073920;28;20186;-86
2021/01/30 03:59:10;;;;;;;24.43;17.47;;;-0.60;99.90;;;;;;5071986;28;20181;-86
2021/01/30 04:01:41;;;;;;;25.20;18.40;;;-0.60;99.90;;;;;;5072120;28;20203;-86
2021/01/30 04:04:12;;;;;;;25.30;17.10;;;-0.50;99.90;;;;;;5072315;28;20574;-87
2021/01/30 04:06:50;;;;;;;22.13;17.20;;;-0.60;99.90;;;;;;5072223;28;20266;-87
2021/01/30 04:09:27;;;;;;;20.83;16.37;;;-0.60;99.90;;;;;;5072290;28;20171;-86
2021/01/30 04:12:01;;;;;;;22.00;17.20;;;-0.70;99.90;;;;;;5072167;28;20698;-87
2021/01/30 04:14:34;;;;;;;20.77;15.80;;;-0.70;99.90;;;;;;5072139;28;20799;-87
2021/01/30 04:17:16;;;;;;;21.67;15.80;;;-0.70;99.90;;;;;;5073364;28;20167;-86
2021/01/30 04:19:46;;;;;;;23.30;16.70;;;-0.70;99.90;;;;;;5072311;28;20175;-86
2021/01/30 04:22:18;;;;;;;24.10;16.50;;;-0.80;99.90;;;;;;5071999;28;20205;-86
2021/01/30 04:24:51;;;;;;;23.03;17.40;;;-0.90;99.90;;;;;;5073248;28;20194;-87
2021/01/30 04:27:24;;;;;;;21.47;17.07;;;-1.00;99.90;;;;;;5072010;28;20557;-87
2021/01/30 04:29:57;;;;;;;19.17;14.90;;;-1.10;99.90;;;;;;5072301;28;20190;-87
2021/01/30 04:32:35;;;;;;;20.93;15.60;;;-1.10;99.90;;;;;;5072262;28;20299;-87
2021/01/30 04:35:09;;;;;;;21.50;15.43;;;-1.10;99.90;;;;;;5071951;28;20205;-86
2021/01/30 04:37:40;;;;;;;23.27;16.03;;;-1.20;99.90;;;;;;5071987;28;20177;-86
2021/01/30 04:40:15;;;;;;;19.27;14.90;;;-1.30;99.90;;;;;;5072501;28;20190;-86
2021/01/30 04:43:04;;;;;;;20.00;15.17;;;-1.30;99.90;;;;;;5071735;28;20209;-86
2021/01/30 04:46:06;;;;;;;20.20;14.90;;;-1.40;99.90;;;;;;5071600;28;20214;-86
2021/01/30 04:49:05;;;;;;;18.93;13.97;;;-1.40;99.90;;;;;;5021312;28;20335;-86
2021/01/30 04:51:41;;;;;;;18.97;13.77;;;-1.30;99.90;;;;;;5071767;28;20182;-87
2021/01/30 04:54:30;;;;;;;20.33;14.77;;;-1.40;99.90;;;;;;5071618;28;20210;-87
2021/01/30 04:57:10;;;;;;;18.60;14.50;;;-1.30;99.90;;;;;;5071913;28;20206;-86
2021/01/30 04:59:51;;;;;;;18.47;13.87;;;-1.30;99.90;;;;;;5073140;28;20164;-86
2021/01/30 05:02:45;;;;;;;19.20;13.53;;;-1.40;99.90;;;;;;5072846;28;20290;-86
2021/01/30 05:05:16;;;;;;;16.00;12.90;;;-1.40;99.90;;;;;;5071644;28;20686;-87
2021/01/30 05:07:56;;;;;;;19.30;14.13;;;-1.30;99.90;;;;;;5071586;28;20178;-86
2021/01/30 05:10:31;;;;;;;16.57;12.43;;;-1.40;99.90;;;;;;5072425;28;20175;-86
2021/01/30 05:13:21;;;;;;;16.57;12.30;;;-1.40;99.90;;;;;;5075457;28;20188;-86
2021/01/30 05:16:01;;;;;;;16.03;12.30;;;-1.30;99.90;;;;;;5076535;28;20175;-86
2021/01/30 05:18:36;;;;;;;15.57;11.23;;;-1.30;99.90;;;;;;5075423;28;20161;-86
2021/01/30 05:21:11;;;;;;;13.63;11.00;;;-1.50;99.90;;;;;;5076693;28;20250;-87
2021/01/30 05:23:47;;;;;;;13.77;11.50;;;-1.70;99.90;;;;;;5075197;28;20211;-86
2021/01/30 05:26:26;;;;;;;14.80;11.50;;;-2.00;99.90;;;;;;5076319;28;20209;-86
2021/01/30 05:29:14;;;;;;;16.30;12.20;;;-2.20;99.90;;;;;;5076293;28;20196;-86
2021/01/30 05:31:51;;;;;;;13.73;10.97;;;-2.40;99.90;;;;;;5075082;28;20195;-86
2021/01/30 05:34:36;;;;;;;14.03;9.80;;;-2.40;99.90;;;;;;5075602;28;20199;-86
2021/01/30 05:37:16;;;;;;;15.10;10.97;;;-2.30;99.90;;;;;;5074930;28;20177;-86
2021/01/30 05:40:04;;;;;;;15.57;10.87;;;-2.40;99.90;;;;;;5076112;28;20184;-86
2021/01/30 05:42:42;;;;;;;12.47;10.87;;;-2.30;99.90;;;;;;5076255;28;20191;-86
2021/01/30 05:45:44;;;;;;;13.00;10.07;;;-2.20;99.90;;;;;;5074842;28;20250;-86
2021/01/30 05:48:28;;;;;;;15.70;11.30;;;-2.20;99.90;;;;;;5058918;28;20580;-86
2021/01/30 05:51:19;;;;;;;14.70;11.10;;;-2.20;99.90;;;;;;5074882;28;20179;-86
2021/01/30 05:53:46;;;;;;;12.93;10.50;;;-2.20;99.90;;;;;;5075894;28;20200;-86
2021/01/30 05:56:12;;;;;;;13.63;10.60;;;-2.20;99.90;;;;;;5074675;28;20544;-86
2021/01/30 05:58:46;;;;;;;12.10;10.17;;;-2.20;99.90;;;;;;5075884;28;20614;-86
2021/01/30 06:01:16;;;;;;;14.40;10.43;;;-2.30;99.90;;;;;;5074415;28;20209;-86
2021/01/30 06:03:57;;;;;;;12.47;10.93;;;-2.40;99.90;;;;;;5075675;28;20193;-86
2021/01/30 06:06:29;;;;;;;14.07;11.17;;;-2.40;99.90;;;;;;5076229;28;20173;-86
2021/01/30 06:09:11;;;;;;;12.90;10.43;;;-2.50;99.90;;;;;;5075653;28;20164;-86
2021/01/30 06:11:50;;;;;;;14.23;10.30;;;-2.50;99.90;;;;;;5075937;28;20168;-86
2021/01/30 06:14:36;;;;;;;13.13;10.27;;;-2.50;99.90;;;;;;5075616;28;20676;-86
2021/01/30 06:17:29;;;;;;;15.50;10.97;;;-2.50;99.90;;;;;;5074346;28;20176;-86
2021/01/30 06:20:14;;;;;;;11.93;9.50;;;-2.50;99.90;;;;;;5074709;28;20186;-86
2021/01/30 06:22:45;;;;;;;14.83;10.20;;;-2.50;99.90;;;;;;5073976;28;20200;-86
2021/01/30 06:25:35;;;;;;;12.37;9.47;;;-2.60;99.90;;;;;;5073926;28;20197;-86
2021/01/30 06:28:09;;;;;;;13.50;9.40;;;-2.60;99.90;;;;;;5074061;28;20176;-86
2021/01/30 06:30:48;;;;;;;14.10;9.60;;;-2.70;99.90;;;;;;5074233;28;20251;-86
2021/01/30 06:33:35;;;;;;;11.63;9.13;;;-2.90;99.90;;;;;;5075366;28;20157;-86
2021/01/30 06:36:15;;;;;;;12.00;9.10;;;-3.10;99.90;;;;;;5073809;28;20198;-86
2021/01/30 06:38:46;;;;;;;12.47;9.37;;;-3.30;99.90;;;;;;5075018;28;20189;-85
2021/01/30 06:41:24;;;;;;;13.07;9.83;;;-3.50;99.90;;;;;;5073686;28;20207;-85
2021/01/30 06:44:03;;;;;;;13.10;9.70;;;-3.80;99.90;;;;;;5073626;28;20211;-85
2021/01/30 06:46:31;;;;;;;11.23;9.13;;;-3.90;99.90;;;;;;5073628;28;20638;-86
2021/01/30 06:49:20;;;;;;;15.60;10.13;;;-3.80;99.90;;;;;;5073648;28;20647;-86
2021/01/30 06:51:46;;;;;;;12.47;9.93;;;-3.80;99.90;;;;;;5074941;28;20197;-85
2021/01/30 06:54:26;;;;;;;14.10;10.60;;;-3.60;99.90;;;;;;5075242;28;20198;-85
2021/01/30 06:57:08;;;;;;;11.27;9.33;;;-3.60;99.90;;;;;;5077431;28;20159;-85
2021/01/30 06:59:51;;;;;;;12.57;10.13;;;-3.50;99.90;;;;;;5074120;28;20174;-86
2021/01/30 07:02:23;;;;;;;13.43;9.50;;;-3.30;99.90;;;;;;5073142;28;20209;-86
2021/01/30 07:05:19;;;;;;;12.93;9.97;;;-3.20;99.90;;;;;;5074835;28;20195;-86
2021/01/30 07:08:14;;;;;;;15.80;9.80;;;-3.20;99.90;;;;;;5073327;28;20171;-86
2021/01/30 07:11:26;;;;;;;15.80;10.47;;;-3.10;99.90;;;;;;5073446;28;20199;-85
2021/01/30 07:14:10;;;;;;;12.37;9.57;;;-3.00;99.90;;;;;;5073163;28;20194;-85
2021/01/30 07:16:52;;;;;;;12.83;9.87;;;-2.90;99.90;;;;;;5073105;28;20214;-86
2021/01/30 07:19:59;;;;;;;16.73;10.60;;;-2.80;99.90;;;;;;5073038;28;20229;-86
2021/01/30 07:22:33;;;;;;;16.03;10.67;;;-2.70;99.90;;;;;;5072918;28;20207;-85
2021/01/30 07:25:14;;;;;;;13.37;9.93;;;-2.70;99.90;;;;;;5073204;28;20207;-86
2021/01/30 07:28:03;;;;;;;14.57;10.43;;;-2.70;99.90;;;;;;5072891;28;20175;-86
2021/01/30 07:31:11;;;;;;;15.80;10.70;;;-2.60;99.90;;;;;;5072820;28;20171;-86
2021/01/30 07:34:01;;;;;;;15.70;10.67;;;-2.50;99.90;;;;;;5067029;28;20689;-86
2021/01/30 07:36:45;;;;;;;12.27;10.10;;;-2.50;99.90;;;;;;5073038;28;20209;-86
2021/01/30 07:39:51;;;;;;;11.70;9.53;;;-2.40;99.90;;;;;;5072530;28;20172;-86
2021/01/30 07:42:38;;;;;;;16.27;10.10;;;-2.40;99.90;;;;;;5073644;28;20195;-86
2021/01/30 07:45:38;;;;;;;14.73;10.37;;;-2.40;99.90;;;;;;5102045;22;20223;-92
2021/01/30 07:48:20;;;;;;;15.97;11.40;;;-2.40;99.90;;;;;;5073034;28;20171;-90
2021/01/30 07:51:05;;;;;;;13.73;9.90;;;-2.40;99.90;;;;;;5073717;28;20175;-90
2021/01/30 07:53:41;;;;;;;15.00;10.40;;;-2.30;99.90;;;;;;5073940;28;20512;-90
2021/01/30 07:56:48;;;;;;;14.00;10.67;;;-2.30;99.90;;;;;;5073839;28;20659;-90
2021/01/30 07:59:29;;;;;;;14.47;10.57;;;-2.30;99.90;;;;;;5060441;28;20179;-90
2021/01/30 08:02:14;;;;;;;13.30;10.73;;;-2.30;99.90;;;;;;5074116;28;20202;-90
2021/01/30 08:05:20;;;;;;;13.47;10.03;;;-2.20;99.90;;;;;;5074298;28;20195;-90
2021/01/30 08:07:58;;;;;;;14.30;9.70;;;-2.20;99.90;;;;;;5075563;28;20635;-90
2021/01/30 08:10:51;;;;;;;13.23;9.83;;;-2.20;99.90;;;;;;5073638;28;20177;-90
2021/01/30 08:13:34;;;;;;;13.00;10.20;;;-2.30;99.90;;;;;;5073711;28;20203;-89
2021/01/30 08:16:19;;;;;;;16.53;10.70;;;-2.30;99.90;;;;;;5073862;28;20240;-89
2021/01/30 08:18:56;;;;;;;13.97;9.80;;;-2.30;99.90;;;;;;5072507;28;20179;-89
2021/01/30 08:21:46;;;;;;;12.10;9.33;;;-2.30;99.90;;;;;;5072717;28;20199;-89
2021/01/30 08:24:20;;;;;;;13.30;9.50;;;-2.30;99.90;;;;;;5073885;28;20188;-89
2021/01/30 08:27:01;;;;;;;15.47;9.30;;;-2.30;99.90;;;;;;5072311;28;20167;-89
2021/01/30 08:29:40;;;;;;;10.63;8.60;;;-2.30;99.90;;;;;;5072181;28;20164;-89
2021/01/30 08:32:27;;;;;;;10.77;8.57;;;-2.30;99.90;;;;;;5074430;28;20205;-89
2021/01/30 08:35:17;;;;;;;11.37;8.93;;;-2.20;99.90;;;;;;5073906;28;20191;-89
2021/01/30 08:38:01;;;;;;;12.27;9.43;;;-2.30;99.90;;;;;;5072147;28;20670;-89
2021/01/30 08:40:54;;;;;;;11.77;7.97;;;-2.20;99.90;;;;;;5072453;28;20223;-90
2021/01/30 08:43:45;;;;;;;11.07;8.43;;;-2.20;99.90;;;;;;5072612;28;20184;-89
2021/01/30 08:46:24;;;;;;;11.80;8.07;;;-2.10;99.90;;;;;;5075415;28;20185;-89
2021/01/30 08:49:15;;;;;;;11.67;8.33;;;-2.20;99.90;;;;;;5076301;28;20172;-89
2021/01/30 08:52:09;;;;;;;10.40;8.60;;;-2.10;99.90;;;;;;5076137;28;20543;-89
2021/01/30 08:54:48;;;;;;;9.50;8.07;;;-2.10;99.90;;;;;;5077362;28;20278;-89
2021/01/30 08:57:33;;;;;;;12.80;8.20;;;-2.10;99.90;;;;;;5076143;28;20178;-89
2021/01/30 09:00:33;;;;;;;14.60;9.10;;;-2.00;99.90;;;;;;5077249;28;20220;-89
2021/01/30 09:03:09;;;;;;;24.47;10.07;;;-2.00;99.90;;;;;;5077027;28;20214;-89
2021/01/30 09:05:46;;;;;;;10.63;8.03;;;-2.00;99.90;;;;;;5077228;28;20191;-89
2021/01/30 09:08:24;;;;;;;10.83;8.77;;;-2.10;99.90;;;;;;5076959;28;20173;-89
2021/01/30 09:11:26;;;;;;;16.60;10.00;;;-2.10;99.90;;;;;;5078392;28;20175;-89
2021/01/30 09:14:07;;;;;;;19.47;11.43;;;-1.90;99.90;;;;;;5077688;28;20182;-90
2021/01/30 09:17:00;;;;;;;12.90;9.53;;;-1.90;99.90;;;;;;5077463;28;20190;-90
2021/01/30 09:19:40;;;;;;;13.10;9.63;;;-1.90;99.90;;;;;;5075961;28;20712;-89
2021/01/30 09:22:22;;;;;;;15.20;9.53;;;-1.90;99.90;;;;;;5076449;28;20684;-89
2021/01/30 09:25:07;;;;;;;20.83;10.37;;;-1.90;99.90;;;;;;5076839;28;20243;-89
2021/01/30 09:27:56;;;;;;;16.60;10.03;;;-1.90;99.90;;;;;;5076849;28;20159;-89
2021/01/30 09:30:41;;;;;;;17.20;10.57;;;-1.80;99.90;;;;;;5076580;28;20189;-89
2021/01/30 09:33:32;;;;;;;18.40;10.27;;;-1.80;99.90;;;;;;5075269;28;20649;-89
2021/01/30 09:36:30;;;;;;;15.60;11.17;;;-1.80;99.90;;;;;;5076488;28;20745;-89
2021/01/30 09:39:01;;;;;;;16.77;10.10;;;-1.70;99.90;;;;;;5075626;28;20170;-89
2021/01/30 09:41:37;;;;;;;13.80;10.60;;;-1.70;99.90;;;;;;5076379;28;20245;-89
2021/01/30 09:44:28;;;;;;;20.83;11.27;;;-1.70;99.90;;;;;;5075282;28;20657;-90
2021/01/30 09:47:07;;;;;;;14.67;10.53;;;-1.60;99.90;;;;;;5075289;28;20178;-90
2021/01/30 09:49:46;;;;;;;13.40;10.07;;;-1.60;99.90;;;;;;5075231;28;20269;-90
2021/01/30 09:52:26;;;;;;;13.47;10.10;;;-1.50;99.90;;;;;;5076336;28;20171;-89
2021/01/30 09:55:01;;;;;;;11.93;9.73;;;-1.40;99.90;;;;;;5076347;28;20284;-89
2021/01/30 09:57:34;;;;;;;14.87;10.57;;;-1.30;99.90;;;;;;5074775;28;20650;-89
2021/01/30 10:00:14;;;;;;;15.30;9.67;;;-1.30;99.90;;;;;;5076221;28;20254;-89
2021/01/30 10:02:43;;;;;;;12.70;9.87;;;-1.20;99.90;;;;;;5076254;28;20211;-90
2021/01/30 10:05:20;;;;;;;18.37;10.47;;;-1.20;99.90;;;;;;5075347;28;20212;-89
2021/01/30 10:07:50;;;;;;;12.87;10.17;;;-1.10;99.90;;;;;;5074917;28;20189;-89
2021/01/30 10:10:31;;;;;;;13.37;10.00;;;-1.10;99.90;;;;;;5075013;28;20568;-89
2021/01/30 10:13:04;;;;;;;12.17;10.07;;;-1.10;99.90;;;;;;5076240;28;20623;-89
2021/01/30 10:15:33;;;;;;;11.33;9.03;;;-1.10;99.90;;;;;;5077027;28;20194;-89
2021/01/30 10:18:07;;;;;;;14.57;10.37;;;-0.90;99.90;;;;;;5075361;28;20253;-89
2021/01/30 10:20:52;;;;;;;18.93;12.27;;;-0.90;99.90;;;;;;5075149;28;20176;-89
2021/01/30 10:23:44;;;;;;;14.37;10.80;;;-0.90;99.90;;;;;;5074856;28;20184;-89
2021/01/30 10:26:16;;;;;;;13.80;9.67;;;-0.80;99.90;;;;;;5075152;28;20176;-89
2021/01/30 10:28:49;;;;;;;12.70;10.20;;;-0.80;99.90;;;;;;5074679;28;20179;-88
2021/01/30 10:31:31;;;;;;;11.83;9.97;;;-0.70;99.90;;;;;;5074814;28;20522;-89
2021/01/30 10:34:11;;;;;;;12.40;9.10;;;-0.60;99.90;;;;;;5076790;28;20213;-89
2021/01/30 10:36:51;;;;;;;10.70;8.90;;;-0.60;99.90;;;;;;5074937;28;20534;-88
2021/01/30 10:39:26;;;;;;;12.27;9.73;;;-0.60;99.90;;;;;;5076390;28;20235;-89
2021/01/30 10:42:01;;;;;;;14.90;9.70;;;-0.50;99.90;;;;;;5075122;28;20309;-89
2021/01/30 10:44:39;;;;;;;12.20;9.83;;;-0.50;99.90;;;;;;5075042;28;20217;-88
2021/01/30 10:47:21;;;;;;;12.33;8.67;;;-0.50;99.90;;;;;;5075234;28;20178;-88
2021/01/30 10:50:01;;;;;;;14.80;9.37;;;-0.50;99.90;;;;;;5075123;28;20175;-89
2021/01/30 10:52:35;;;;;;;10.37;8.53;;;-0.50;99.90;;;;;;5075076;28;20182;-89
2021/01/30 10:55:31;;;;;;;10.33;8.50;;;-0.40;99.90;;;;;;5074496;28;20200;-88
2021/01/30 10:58:21;;;;;;;10.30;8.20;;;-0.40;99.90;;;;;;5069617;28;20191;-88
2021/01/30 11:00:59;;;;;;;9.57;7.47;;;-0.50;99.90;;;;;;5074005;28;20186;-88
2021/01/30 11:03:50;;;;;;;10.20;7.80;;;-0.40;99.90;;;;;;5073899;28;20259;-88
2021/01/30 11:06:45;;;;;;;10.53;8.37;;;-0.50;99.90;;;;;;5074116;28;20256;-88
2021/01/30 11:09:24;;;;;;;13.90;8.67;;;-0.50;99.90;;;;;;5073458;28;20628;-88
2021/01/30 11:12:24;;;;;;;16.23;8.97;;;-0.50;99.90;;;;;;5075441;28;20194;-88
2021/01/30 11:14:59;;;;;;;13.73;9.13;;;-0.40;99.90;;;;;;5073978;28;20197;-88
2021/01/30 11:17:35;;;;;;;11.20;9.63;;;-0.20;99.90;;;;;;5075028;28;20198;-88
2021/01/30 11:20:10;;;;;;;11.53;9.20;;;0.10;99.90;;;;;;5074977;28;20167;-88
2021/01/30 11:22:51;;;;;;;11.27;9.10;;;0.30;99.90;;;;;;5073542;28;20261;-88
2021/01/30 11:25:36;;;;;;;11.37;9.40;;;0.50;99.90;;;;;;5073828;28;20202;-88
2021/01/30 11:28:10;;;;;;;15.90;8.83;;;0.60;99.90;;;;;;5073982;28;20579;-88
2021/01/30 11:30:43;;;;;;;8.67;7.77;;;0.70;99.90;;;;;;5073443;28;20193;-88
2021/01/30 11:33:20;;;;;;;11.30;8.93;;;0.70;99.90;;;;;;5073855;28;20186;-88
2021/01/30 11:35:56;;;;;;;10.87;8.60;;;0.80;99.90;;;;;;5074023;28;20541;-88
2021/01/30 11:38:30;;;;;;;10.87;8.70;;;0.90;99.90;;;;;;5075230;28;20171;-88
2021/01/30 11:41:09;;;;;;;12.67;7.57;;;0.90;99.90;;;;;;5073866;28;20174;-88
2021/01/30 11:43:35;;;;;;;10.70;7.97;;;1.20;99.90;;;;;;5075146;28;20160;-89
2021/01/30 11:46:11;;;;;;;9.90;8.13;;;1.10;99.90;;;;;;5074403;28;20207;-89
2021/01/30 11:48:43;;;;;;;13.90;7.93;;;1.40;99.90;;;;;;5074013;28;20198;-88
2021/01/30 11:51:28;;;;;;;9.60;7.80;;;1.60;99.90;;;;;;5074858;28;20171;-88
2021/01/30 11:54:02;;;;;;;10.90;7.33;;;1.80;99.90;;;;;;5073975;28;20639;-88
2021/01/30 11:56:31;;;;;;;9.03;7.73;;;1.80;99.90;;;;;;5075387;28;20175;-88
2021/01/30 11:59:04;;;;;;;8.80;7.50;;;1.80;99.90;;;;;;5073790;28;20178;-88
2021/01/30 12:01:43;;;;;;;11.60;8.23;;;1.90;99.90;;;;;;5075326;28;20191;-89
2021/01/30 12:04:16;;;;;;;11.27;8.73;;;1.90;99.90;;;;;;5073576;28;20278;-88
2021/01/30 12:06:48;;;;;;;11.60;9.27;;;1.70;99.90;;;;;;5074014;28;20176;-89
2021/01/30 12:09:14;;;;;;;11.07;8.63;;;1.60;99.90;;;;;;5076580;28;20179;-90
2021/01/30 12:11:54;;;;;;;12.43;9.17;;;1.60;99.90;;;;;;5075440;28;20196;-90
2021/01/30 12:14:28;;;;;;;13.07;8.80;;;1.60;99.90;;;;;;5074143;28;20197;-90
2021/01/30 12:17:01;;;;;;;11.33;9.43;;;1.50;99.90;;;;;;5074192;28;20179;-90
2021/01/30 12:19:37;;;;;;;11.77;9.23;;;1.50;99.90;;;;;;5073551;28;20176;-90
2021/01/30 12:22:11;;;;;;;12.67;9.57;;;1.40;99.90;;;;;;5073732;28;20203;-90
2021/01/30 12:24:48;;;;;;;12.97;9.33;;;1.50;99.90;;;;;;5074028;28;20188;-90
2021/01/30 12:27:19;;;;;;;10.10;8.43;;;1.50;99.90;;;;;;5074580;28;20180;-90
2021/01/30 12:29:56;;;;;;;11.30;7.63;;;1.50;99.90;;;;;;5073367;28;20595;-89
2021/01/30 12:32:28;;;;;;;14.43;8.10;;;1.50;99.90;;;;;;5074107;28;20172;-89
2021/01/30 12:35:03;;;;;;;12.97;8.50;;;1.20;99.90;;;;;;5073057;28;20654;-88
2021/01/30 12:37:34;;;;;;;15.00;8.53;;;1.10;99.90;;;;;;5072094;28;20186;-88
2021/01/30 12:40:05;;;;;;;10.87;8.47;;;0.90;99.90;;;;;;5073383;28;20649;-88
2021/01/30 12:42:41;;;;;;;12.17;8.37;;;0.90;99.90;;;;;;5071983;28;20247;-89
2021/01/30 12:45:10;;;;;;;12.90;9.40;;;0.90;99.90;;;;;;5072455;28;20637;-88
2021/01/30 12:47:44;;;;;;;13.00;9.00;;;0.90;99.90;;;;;;5073305;28;20229;-87
2021/01/30 12:50:16;;;;;;;13.90;8.20;;;0.80;99.90;;;;;;5072492;28;20171;-90
2021/01/30 12:52:50;;;;;;;10.67;8.30;;;0.80;99.90;;;;;;5072072;28;20179;-90
2021/01/30 12:55:23;;;;;;;11.50;9.10;;;0.70;99.90;;;;;;5073192;28;20737;-90
2021/01/30 12:57:57;;;;;;;10.83;9.37;;;0.70;99.90;;;;;;5071800;28;20179;-90
2021/01/30 13:00:31;;;;;;;14.93;8.83;;;0.80;99.90;;;;;;5071885;28;20180;-90
2021/01/30 13:03:01;;;;;;;10.67;8.57;;;0.80;99.90;;;;;;5071948;28;20202;-90
2021/01/30 13:05:30;;;;;;;13.17;8.83;;;0.80;99.90;;;;;;5071838;28;20188;-91
2021/01/30 13:08:05;;;;;;;11.57;8.63;;;0.80;99.90;;;;;;5072515;28;20176;-91
2021/01/30 13:10:31;;;;;;;10.80;8.90;;;0.80;99.90;;;;;;5073309;28;20171;-90
2021/01/30 13:13:07;;;;;;;13.37;9.57;;;0.80;99.90;;;;;;5073226;28;20176;-90
2021/01/30 13:15:34;;;;;;;14.50;9.00;;;0.80;99.90;;;;;;5072355;28;20585;-91
2021/01/30 13:18:00;;;;;;;11.47;8.83;;;0.80;99.90;;;;;;5073595;28;20180;-91
2021/01/30 13:20:30;;;;;;;10.93;8.90;;;0.90;99.90;;;;;;5073590;28;20716;-90
2021/01/30 13:22:57;;;;;;;12.57;9.13;;;0.90;99.90;;;;;;5072300;28;20195;-90
2021/01/30 13:25:29;;;;;;;15.97;9.57;;;0.90;99.90;;;;;;5071496;28;20199;-91
2021/01/30 13:28:08;;;;;;;11.13;8.87;;;1.00;99.90;;;;;;5072274;28;20183;-92
2021/01/30 13:30:43;;;;;;;14.60;8.93;;;1.10;99.90;;;;;;5072759;28;20171;-91
2021/01/30 13:33:14;;;;;;;15.67;9.93;;;1.10;99.90;;;;;;5077033;28;20170;-91
2021/01/30 13:35:48;;;;;;;12.40;9.37;;;1.10;99.90;;;;;;5078519;28;20195;-91